createdAt,value
2019-03-24T00:01:22.345Z,110.00
2019-03-24T00:03:49.738Z,108.57
2019-03-24T00:06:17.166Z,98.60
2019-03-24T00:08:44.539Z,93.23
2019-03-24T00:11:11.963Z,92.93
2019-03-24T00:13:39.346Z,93.30
2019-03-24T00:16:06.772Z,102.30
2019-03-24T00:18:34.155Z,106.03
2019-03-24T00:21:01.573Z,94.80
2019-03-24T00:23:28.962Z,106.70
2019-03-24T00:25:56.385Z,100.70
2019-03-24T00:28:23.770Z,108.93
2019-03-24T00:30:51.268Z,108.73
2019-03-24T00:33:18.726Z,105.10
2019-03-24T00:35:46.165Z,112.03
2019-03-24T00:38:13.591Z,110.10
2019-03-24T00:40:41.007Z,125.13
2019-03-24T00:43:08.461Z,110.40
2019-03-24T00:45:37.150Z,112.53
2019-03-24T00:48:04.767Z,112.60
2019-03-24T00:50:32.154Z,111.10
2019-03-24T00:52:59.570Z,96.93
2019-03-24T00:55:26.970Z,104.37
2019-03-24T00:57:54.388Z,105.50
2019-03-24T01:00:26.002Z,112.93
2019-03-24T01:02:53.418Z,113.63
2019-03-24T01:05:20.804Z,118.33
2019-03-24T01:07:48.298Z,107.07
2019-03-24T01:10:15.758Z,120.83
2019-03-24T01:12:43.184Z,119.87
2019-03-24T01:15:10.723Z,104.80
2019-03-24T01:17:38.131Z,105.07
2019-03-24T01:20:06.302Z,122.17
2019-03-24T01:22:33.731Z,110.33
2019-03-24T01:25:01.114Z,114.57
2019-03-24T01:27:28.537Z,118.63
2019-03-24T01:29:55.924Z,136.33
2019-03-24T01:32:23.412Z,116.80
2019-03-24T01:34:51.226Z,123.75
2019-03-24T01:37:18.714Z,123.30
2019-03-24T01:39:46.102Z,113.30
2019-03-24T01:42:13.525Z,108.63
2019-03-24T01:44:40.925Z,108.47
2019-03-24T01:47:08.338Z,111.20
2019-03-24T01:49:35.730Z,113.43
2019-03-24T01:52:03.144Z,116.20
2019-03-24T01:54:30.534Z,116.33
2019-03-24T01:56:57.967Z,106.60
2019-03-24T01:59:25.361Z,106.97
2019-03-24T02:01:52.798Z,103.73
2019-03-24T02:04:20.176Z,103.80
2019-03-24T02:06:47.581Z,110.73
2019-03-24T02:09:15.060Z,105.40
2019-03-24T02:11:42.394Z,106.40
2019-03-24T02:14:09.824Z,104.77
2019-03-24T02:16:37.221Z,101.93
2019-03-24T02:19:04.702Z,107.13
2019-03-24T02:21:32.158Z,108.43
2019-03-24T02:23:59.581Z,97.53
2019-03-24T02:26:27.859Z,104.50
2019-03-24T02:28:55.290Z,112.93
2019-03-24T02:31:22.683Z,112.70
2019-03-24T02:33:50.114Z,111.17
2019-03-24T02:36:17.500Z,107.43
2019-03-24T02:38:44.914Z,118.77
2019-03-24T02:41:12.310Z,113.33
2019-03-24T02:43:39.725Z,108.20
2019-03-24T02:46:07.123Z,109.03
2019-03-24T02:48:34.538Z,111.63
2019-03-24T02:51:01.935Z,101.90
2019-03-24T02:53:29.375Z,120.93
2019-03-24T02:55:56.846Z,108.87
2019-03-24T02:58:24.260Z,94.90
2019-03-24T03:00:51.724Z,106.90
2019-03-24T03:03:19.142Z,110.50
2019-03-24T03:05:46.532Z,100.40
2019-03-24T03:08:13.953Z,100.43
2019-03-24T03:10:41.411Z,106.07
2019-03-24T03:13:08.841Z,102.23
2019-03-24T03:15:36.238Z,106.80
2019-03-24T03:18:03.731Z,111.07
2019-03-24T03:20:31.112Z,114.20
2019-03-24T03:22:58.527Z,117.57
2019-03-24T03:25:25.930Z,113.97
2019-03-24T03:27:53.315Z,114.67
2019-03-24T03:30:20.729Z,98.10
2019-03-24T03:32:48.186Z,118.87
2019-03-24T03:35:15.710Z,104.80
2019-03-24T03:37:43.075Z,109.23
2019-03-24T03:40:10.666Z,108.37
2019-03-24T03:42:38.926Z,99.77
2019-03-24T03:45:07.221Z,105.80
2019-03-24T03:47:34.611Z,103.57
2019-03-24T03:50:02.074Z,119.60
2019-03-24T03:52:29.521Z,98.77
2019-03-24T03:54:56.948Z,105.70
2019-03-24T03:57:24.347Z,105.17
2019-03-24T03:59:51.772Z,112.90
2019-03-24T04:02:19.167Z,115.13
2019-03-24T04:04:46.584Z,117.03
2019-03-24T04:07:13.978Z,119.27
2019-03-24T04:09:41.406Z,97.27
2019-03-24T04:12:08.805Z,111.50
2019-03-24T04:14:36.220Z,118.83
2019-03-24T04:17:07.512Z,105.17
2019-03-24T04:19:32.681Z,118.67
2019-03-24T04:22:00.073Z,105.83
2019-03-24T04:24:27.497Z,110.33
2019-03-24T04:26:54.884Z,118.40
2019-03-24T04:29:22.296Z,115.77
2019-03-24T04:31:49.698Z,106.70
2019-03-24T04:34:17.115Z,104.77
2019-03-24T04:36:44.513Z,111.73
2019-03-24T04:39:11.940Z,113.00
2019-03-24T04:41:39.335Z,119.10
2019-03-24T04:44:06.754Z,121.87
2019-03-24T04:46:34.145Z,123.17
2019-03-24T04:49:01.571Z,122.70
2019-03-24T04:51:28.964Z,127.07
2019-03-24T04:53:56.357Z,111.33
2019-03-24T04:56:23.784Z,110.40
2019-03-24T04:58:51.175Z,122.73
2019-03-24T05:01:18.594Z,127.90
2019-03-24T05:03:46.053Z,116.17
2019-03-24T05:06:13.541Z,126.73
2019-03-24T05:08:41.307Z,131.70
2019-03-24T05:11:08.729Z,127.20
2019-03-24T05:13:36.122Z,124.47
2019-03-24T05:16:03.614Z,112.45
2019-03-24T05:18:31.013Z,111.17
2019-03-24T05:20:58.438Z,107.37
2019-03-24T05:23:25.825Z,104.43
2019-03-24T05:25:53.257Z,113.33
2019-03-24T05:28:20.645Z,122.80
2019-03-24T05:30:48.068Z,110.13
2019-03-24T05:33:15.452Z,111.67
2019-03-24T05:35:42.874Z,121.90
2019-03-24T05:38:10.335Z,113.20
2019-03-24T05:40:37.750Z,119.73
2019-03-24T05:43:05.221Z,104.50
2019-03-24T05:45:32.642Z,99.70
2019-03-24T05:48:00.027Z,112.30
2019-03-24T05:50:27.457Z,122.97
2019-03-24T05:52:54.842Z,103.80
2019-03-24T05:55:22.273Z,108.13
2019-03-24T05:57:49.667Z,113.33
2019-03-24T06:00:17.081Z,110.63
2019-03-24T06:02:44.469Z,110.07
2019-03-24T06:05:11.962Z,115.20
2019-03-24T06:07:39.357Z,106.07
2019-03-24T06:10:06.935Z,108.37
2019-03-24T06:12:34.321Z,103.03
2019-03-24T06:15:01.722Z,104.90
2019-03-24T06:17:29.135Z,101.20
2019-03-24T06:19:56.523Z,107.67
2019-03-24T06:22:23.951Z,98.97
2019-03-24T06:24:51.334Z,97.07
2019-03-24T06:27:18.754Z,105.93
2019-03-24T06:29:46.175Z,98.00
2019-03-24T06:32:13.565Z,101.67
2019-03-24T06:34:40.961Z,95.83
2019-03-24T06:37:08.382Z,91.73
2019-03-24T06:39:35.762Z,95.90
2019-03-24T06:42:03.255Z,106.73
2019-03-24T06:44:30.659Z,117.43
2019-03-24T06:46:58.071Z,97.10
2019-03-24T06:49:25.489Z,96.03
2019-03-24T06:51:52.887Z,99.32
2019-03-24T06:54:20.278Z,97.27
2019-03-24T06:56:47.705Z,92.40
2019-03-24T06:59:15.129Z,91.50
2019-03-24T07:01:42.524Z,86.13
2019-03-24T07:04:09.904Z,99.00
2019-03-24T07:06:37.397Z,100.03
2019-03-24T07:09:05.559Z,78.70
2019-03-24T07:11:32.968Z,88.43
2019-03-24T07:14:00.353Z,91.10
2019-03-24T07:16:27.772Z,100.60
2019-03-24T07:18:55.156Z,89.80
2019-03-24T07:21:22.574Z,87.03
2019-03-24T07:23:49.964Z,81.70
2019-03-24T07:26:17.380Z,96.53
2019-03-24T07:28:44.760Z,89.83
2019-03-24T07:31:12.223Z,100.83
2019-03-24T07:33:39.720Z,89.80
2019-03-24T07:36:07.124Z,95.83
2019-03-24T07:38:34.510Z,95.83
2019-03-24T07:41:01.923Z,87.23
2019-03-24T07:43:29.304Z,81.90
2019-03-24T07:45:56.702Z,85.63
2019-03-24T07:48:24.126Z,89.67
2019-03-24T07:50:51.580Z,90.20
2019-03-24T07:53:18.993Z,138.23
2019-03-24T07:55:46.385Z,91.80
2019-03-24T07:58:13.801Z,77.53
2019-03-24T08:00:41.193Z,92.10
2019-03-24T08:03:08.615Z,89.60
2019-03-24T08:05:36.008Z,88.80
2019-03-24T08:08:03.598Z,81.80
2019-03-24T08:10:30.989Z,84.83
2019-03-24T08:12:58.511Z,86.07
2019-03-24T08:15:25.890Z,85.60
2019-03-24T08:17:53.315Z,85.73
2019-03-24T08:20:20.703Z,84.67
2019-03-24T08:22:48.138Z,88.37
2019-03-24T08:25:15.516Z,86.73
2019-03-24T08:27:42.937Z,85.60
2019-03-24T08:30:10.585Z,83.53
2019-03-24T08:32:38.075Z,80.97
2019-03-24T08:35:05.935Z,88.30
2019-03-24T08:37:33.345Z,88.37
2019-03-24T08:40:00.867Z,85.97
2019-03-24T08:42:28.275Z,85.30
2019-03-24T08:44:55.741Z,86.70
2019-03-24T08:47:23.163Z,78.50
2019-03-24T08:49:50.550Z,89.40
2019-03-24T08:52:17.965Z,87.07
2019-03-24T08:54:45.355Z,87.83
2019-03-24T08:57:12.778Z,93.00
2019-03-24T08:59:40.238Z,89.57
2019-03-24T09:02:07.653Z,93.20
2019-03-24T09:04:35.040Z,87.30
2019-03-24T09:07:02.432Z,88.00
2019-03-24T09:09:29.840Z,93.47
2019-03-24T09:11:57.588Z,82.77
2019-03-24T09:14:25.305Z,88.90
2019-03-24T09:16:53.050Z,93.33
2019-03-24T09:19:20.789Z,89.10
2019-03-24T09:21:48.436Z,91.23
2019-03-24T09:24:16.015Z,96.27
2019-03-24T09:26:43.623Z,83.10
2019-03-24T09:29:11.275Z,91.60
2019-03-24T09:31:39.005Z,87.93
2019-03-24T09:34:06.728Z,95.70
2019-03-24T09:36:34.454Z,97.00
2019-03-24T09:39:01.830Z,97.40
2019-03-24T09:41:29.210Z,87.87
2019-03-24T09:43:56.624Z,88.90
2019-03-24T09:46:24.014Z,97.00
2019-03-24T09:48:51.430Z,95.97
2019-03-24T09:51:21.105Z,97.53
2019-03-24T09:53:47.880Z,79.70
2019-03-24T09:56:15.273Z,88.50
2019-03-24T09:58:42.696Z,85.63
2019-03-24T10:01:10.094Z,93.87
2019-03-24T10:03:37.522Z,93.40
2019-03-24T10:06:04.910Z,86.63
2019-03-24T10:08:32.323Z,93.33
2019-03-24T10:10:59.713Z,88.13
2019-03-24T10:13:27.136Z,88.60
2019-03-24T10:15:54.529Z,96.37
2019-03-24T10:18:21.956Z,84.00
2019-03-24T10:20:49.414Z,90.80
2019-03-24T10:23:16.829Z,93.30
2019-03-24T10:25:44.226Z,100.10
2019-03-24T10:28:11.614Z,89.67
2019-03-24T10:30:39.034Z,90.73
2019-03-24T10:33:06.417Z,92.17
2019-03-24T10:35:33.837Z,89.70
2019-03-24T10:38:01.223Z,80.33
2019-03-24T10:40:29.219Z,87.67
2019-03-24T10:42:56.626Z,92.57
2019-03-24T10:45:24.044Z,86.20
2019-03-24T10:47:51.428Z,92.20
2019-03-24T10:50:18.852Z,94.17
2019-03-24T10:52:46.233Z,89.97
2019-03-24T10:55:13.821Z,95.00
2019-03-24T10:57:41.216Z,97.47
2019-03-24T11:00:12.956Z,95.97
2019-03-24T11:02:40.343Z,93.00
2019-03-24T11:05:08.041Z,96.20
2019-03-24T11:07:35.425Z,88.67
2019-03-24T11:10:03.113Z,97.20
2019-03-24T11:12:30.549Z,105.93
2019-03-24T11:14:59.165Z,89.47
2019-03-24T11:17:26.482Z,91.50
2019-03-24T11:19:53.898Z,92.40
2019-03-24T11:22:21.286Z,92.50
2019-03-24T11:24:48.701Z,92.17
2019-03-24T11:27:16.089Z,93.50
2019-03-24T11:29:43.505Z,89.40
2019-03-24T11:32:10.913Z,88.97
2019-03-24T11:34:38.360Z,93.50
2019-03-24T11:37:05.759Z,88.57
2019-03-24T11:39:33.177Z,97.63
2019-03-24T11:42:00.584Z,91.12
2019-03-24T11:44:27.994Z,96.03
2019-03-24T11:46:55.377Z,82.23
2019-03-24T11:49:22.788Z,73.17
2019-03-24T11:51:50.261Z,92.27
2019-03-24T11:54:17.677Z,79.63
2019-03-24T11:56:45.141Z,85.23
2019-03-24T11:59:12.534Z,90.67
2019-03-24T12:01:39.966Z,88.53
2019-03-24T12:04:07.363Z,90.87
2019-03-24T12:06:34.779Z,85.93
2019-03-24T12:09:02.171Z,90.00
2019-03-24T12:11:29.608Z,85.97
2019-03-24T12:13:57.018Z,97.57
2019-03-24T12:16:24.476Z,91.67
2019-03-24T12:18:51.874Z,98.53
2019-03-24T12:21:19.327Z,80.40
2019-03-24T12:23:46.708Z,97.53
2019-03-24T12:26:14.134Z,95.07
2019-03-24T12:28:41.528Z,91.80
2019-03-24T12:31:08.952Z,86.17
2019-03-24T12:33:36.408Z,89.03
2019-03-24T12:36:03.905Z,93.80
2019-03-24T12:38:31.305Z,102.80
2019-03-24T12:40:58.718Z,94.83
2019-03-24T12:43:26.113Z,101.10
2019-03-24T12:45:53.527Z,94.07
2019-03-24T12:48:21.016Z,99.17
2019-03-24T12:50:48.533Z,101.03
2019-03-24T12:53:15.933Z,99.57
2019-03-24T12:55:43.350Z,99.50
2019-03-24T12:58:10.747Z,105.30
2019-03-24T13:00:38.687Z,100.70
2019-03-24T13:03:06.265Z,112.97
2019-03-24T13:05:33.685Z,99.10
2019-03-24T13:08:08.407Z,92.43
2019-03-24T13:10:35.820Z,94.77
2019-03-24T13:13:03.207Z,87.80
2019-03-24T13:15:30.907Z,95.20
2019-03-24T13:17:58.297Z,106.00
2019-03-24T13:20:37.877Z,83.13
2019-03-24T13:22:54.991Z,100.73
2019-03-24T13:25:22.363Z,99.83
2019-03-24T13:27:49.785Z,92.47
2019-03-24T13:30:17.246Z,88.67
2019-03-24T13:32:44.661Z,85.33
2019-03-24T13:35:12.048Z,89.97
2019-03-24T13:37:39.489Z,100.40
2019-03-24T13:40:06.884Z,89.63
2019-03-24T13:42:34.286Z,83.97
2019-03-24T13:45:01.673Z,85.43
2019-03-24T13:47:29.087Z,84.17
2019-03-24T13:49:56.474Z,88.60
2019-03-24T13:52:23.953Z,80.80
2019-03-24T13:54:51.417Z,86.43
2019-03-24T13:57:18.905Z,92.43
2019-03-24T13:59:46.287Z,87.37
2019-03-24T14:02:13.717Z,88.50
2019-03-24T14:04:41.108Z,83.90
2019-03-24T14:07:08.529Z,97.03
2019-03-24T14:09:35.920Z,101.23
2019-03-24T14:12:03.330Z,89.33
2019-03-24T14:14:30.722Z,96.63
2019-03-24T14:16:58.129Z,94.50
2019-03-24T14:19:25.539Z,91.57
2019-03-24T14:21:52.948Z,92.63
2019-03-24T14:24:20.330Z,93.40
2019-03-24T14:26:47.712Z,92.67
2019-03-24T14:29:15.126Z,97.90
2019-03-24T14:31:42.523Z,94.37
2019-03-24T14:34:09.937Z,79.17
2019-03-24T14:36:37.330Z,95.83
2019-03-24T14:39:05.318Z,85.70
2019-03-24T14:41:32.702Z,93.53
2019-03-24T14:44:00.123Z,108.60
2019-03-24T14:46:27.507Z,90.97
2019-03-24T14:48:54.924Z,105.07
2019-03-24T14:51:22.327Z,88.80
2019-03-24T14:53:49.749Z,83.90
2019-03-24T14:56:17.129Z,83.27
2019-03-24T14:58:44.545Z,81.83
2019-03-24T15:01:11.942Z,80.53
2019-03-24T15:03:39.356Z,72.17
2019-03-24T15:06:06.746Z,82.67
2019-03-24T15:08:34.170Z,74.10
2019-03-24T15:11:01.561Z,74.80
2019-03-24T15:13:28.975Z,75.50
2019-03-24T15:15:56.364Z,80.20
2019-03-24T15:18:23.786Z,76.93
2019-03-24T15:20:51.237Z,74.30
2019-03-24T15:23:18.652Z,68.00
2019-03-24T15:25:46.040Z,78.67
2019-03-24T15:28:13.460Z,70.33
2019-03-24T15:30:40.850Z,83.40
2019-03-24T15:33:08.273Z,79.40
2019-03-24T15:35:35.651Z,77.67
2019-03-24T15:38:08.403Z,77.47
2019-03-24T15:40:32.086Z,85.47
2019-03-24T15:42:59.505Z,81.60
2019-03-24T15:45:26.901Z,76.00
2019-03-24T15:47:54.322Z,78.90
2019-03-24T15:50:21.706Z,75.00
2019-03-24T15:52:49.118Z,79.50
2019-03-24T15:55:16.518Z,74.80
2019-03-24T15:57:43.938Z,76.03
2019-03-24T16:00:12.466Z,81.90
2019-03-24T16:02:39.877Z,76.10
2019-03-24T16:05:07.441Z,69.47
2019-03-24T16:07:34.828Z,76.00
2019-03-24T16:10:02.327Z,73.77
2019-03-24T16:12:29.715Z,77.37
2019-03-24T16:14:57.125Z,74.23
2019-03-24T16:17:24.524Z,82.13
2019-03-24T16:19:51.936Z,80.97
2019-03-24T16:22:19.316Z,77.40
2019-03-24T16:24:46.731Z,71.30
2019-03-24T16:27:14.123Z,82.60
2019-03-24T16:29:41.528Z,73.20
2019-03-24T16:32:08.914Z,71.07
2019-03-24T16:34:36.335Z,85.83
2019-03-24T16:37:03.777Z,78.27
2019-03-24T16:39:31.188Z,79.23
2019-03-24T16:41:58.575Z,71.30
2019-03-24T16:44:25.999Z,78.23
2019-03-24T16:46:53.388Z,73.43
2019-03-24T16:49:20.835Z,80.90
2019-03-24T16:51:48.224Z,72.00
2019-03-24T16:54:15.633Z,83.17
2019-03-24T16:56:43.026Z,70.63
2019-03-24T16:59:10.449Z,79.20
2019-03-24T17:01:37.825Z,71.90
2019-03-24T17:04:05.247Z,68.90
2019-03-24T17:06:32.632Z,78.37
2019-03-24T17:09:00.046Z,69.70
2019-03-24T17:11:27.440Z,76.30
2019-03-24T17:13:54.848Z,92.20
2019-03-24T17:16:22.231Z,83.87
2019-03-24T17:18:49.653Z,81.87
2019-03-24T17:21:17.043Z,79.47
2019-03-24T17:23:44.458Z,79.07
2019-03-24T17:26:11.857Z,74.87
2019-03-24T17:28:39.234Z,71.07
2019-03-24T17:31:06.869Z,79.07
2019-03-24T17:33:34.251Z,80.10
2019-03-24T17:36:01.736Z,75.83
2019-03-24T17:38:29.128Z,69.67
2019-03-24T17:40:56.536Z,63.00
2019-03-24T17:43:23.925Z,68.80
2019-03-24T17:45:51.347Z,68.27
2019-03-24T17:48:18.735Z,79.83
2019-03-24T17:50:46.267Z,74.47
2019-03-24T17:53:13.598Z,69.70
2019-03-24T17:55:41.014Z,64.30
2019-03-24T17:58:08.469Z,64.70
2019-03-24T18:00:36.757Z,68.47
2019-03-24T18:03:04.213Z,68.97
2019-03-24T18:05:31.634Z,60.93
2019-03-24T18:07:59.020Z,71.13
2019-03-24T18:10:26.442Z,66.13
2019-03-24T18:12:53.830Z,62.20
2019-03-24T18:15:21.251Z,61.57
2019-03-24T18:17:48.640Z,71.10
2019-03-24T18:20:17.607Z,70.30
2019-03-24T18:22:44.984Z,67.93
2019-03-24T18:25:12.479Z,62.17
2019-03-24T18:27:39.859Z,69.53
2019-03-24T18:30:08.648Z,77.60
2019-03-24T18:32:35.999Z,72.40
2019-03-24T18:35:04.560Z,64.70
2019-03-24T18:37:31.897Z,70.13
2019-03-24T18:39:59.361Z,64.03
2019-03-24T18:42:27.672Z,63.68
2019-03-24T18:44:55.703Z,71.80
2019-03-24T18:47:23.043Z,57.57
2019-03-24T18:49:50.457Z,82.87
2019-03-24T18:52:22.582Z,76.53
2019-03-24T18:54:46.910Z,65.57
2019-03-24T18:57:14.325Z,65.67
2019-03-24T18:59:41.707Z,64.43
2019-03-24T19:02:09.118Z,65.57
2019-03-24T19:04:36.504Z,63.40
2019-03-24T19:07:03.933Z,72.97
2019-03-24T19:09:31.334Z,67.10
2019-03-24T19:11:58.748Z,62.73
2019-03-24T19:14:26.147Z,63.80
2019-03-24T19:16:53.556Z,65.23
2019-03-24T19:19:20.954Z,59.30
2019-03-24T19:21:48.360Z,61.80
2019-03-24T19:24:15.748Z,64.53
2019-03-24T19:26:43.162Z,59.10
2019-03-24T19:29:10.545Z,60.63
2019-03-24T19:31:37.957Z,59.37
2019-03-24T19:34:05.417Z,54.53
2019-03-24T19:36:32.834Z,56.57
2019-03-24T19:39:00.223Z,55.73
2019-03-24T19:41:27.637Z,55.37
2019-03-24T19:43:55.026Z,50.40
2019-03-24T19:46:22.453Z,60.17
2019-03-24T19:48:49.827Z,54.67
2019-03-24T19:51:17.255Z,53.97
2019-03-24T19:53:44.634Z,64.93
2019-03-24T19:56:12.128Z,56.87
2019-03-24T19:58:39.516Z,55.53
2019-03-24T20:01:06.940Z,58.60
2019-03-24T20:03:34.333Z,63.20
2019-03-24T20:06:01.742Z,64.20
2019-03-24T20:08:29.142Z,54.10
2019-03-24T20:10:56.569Z,57.87
2019-03-24T20:13:23.959Z,64.40
2019-03-24T20:15:51.345Z,78.10
2019-03-24T20:18:18.756Z,64.43
2019-03-24T20:20:46.152Z,65.80
2019-03-24T20:23:13.578Z,60.67
2019-03-24T20:25:40.970Z,65.17
2019-03-24T20:28:08.389Z,71.50
2019-03-24T20:30:35.782Z,63.43
2019-03-24T20:33:03.209Z,56.80
2019-03-24T20:35:30.594Z,52.00
2019-03-24T20:37:58.011Z,50.00
2019-03-24T20:40:25.398Z,50.50
2019-03-24T20:42:52.818Z,56.87
2019-03-24T20:45:20.205Z,46.63
2019-03-24T20:47:47.622Z,49.80
2019-03-24T20:50:15.010Z,48.77
2019-03-24T20:52:42.432Z,47.57
2019-03-24T20:55:10.090Z,49.53
2019-03-24T20:57:37.506Z,53.17
2019-03-24T21:00:06.648Z,46.27
2019-03-24T21:02:34.058Z,40.63
2019-03-24T21:05:01.487Z,40.37
2019-03-24T21:07:28.858Z,44.80
2019-03-24T21:09:56.250Z,40.87
2019-03-24T21:12:23.724Z,44.27
2019-03-24T21:14:51.113Z,41.03
2019-03-24T21:17:18.531Z,39.13
2019-03-24T21:19:45.917Z,38.57
2019-03-24T21:22:13.333Z,32.90
2019-03-24T21:24:40.726Z,42.33
2019-03-24T21:27:08.253Z,38.97
2019-03-24T21:29:35.651Z,38.70
2019-03-24T21:32:03.057Z,35.93
2019-03-24T21:34:30.490Z,31.77
2019-03-24T21:36:57.944Z,34.73
2019-03-24T21:39:25.411Z,30.93
2019-03-24T21:41:52.971Z,31.40
2019-03-24T21:44:20.381Z,32.90
2019-03-24T21:46:47.874Z,37.93
2019-03-24T21:49:15.285Z,37.73
2019-03-24T21:51:42.683Z,39.67
2019-03-24T21:54:10.176Z,38.93
2019-03-24T21:56:37.607Z,38.73
2019-03-24T21:59:05.101Z,40.10
2019-03-24T22:01:32.564Z,43.33
2019-03-24T22:04:00.018Z,37.33
2019-03-24T22:06:27.446Z,45.20
2019-03-24T22:08:54.876Z,39.13
2019-03-24T22:11:22.270Z,45.83
2019-03-24T22:13:49.741Z,43.33
2019-03-24T22:16:17.208Z,40.33
2019-03-24T22:18:44.614Z,48.63
2019-03-24T22:21:12.007Z,47.40
2019-03-24T22:23:39.418Z,46.73
2019-03-24T22:26:06.873Z,49.30
2019-03-24T22:28:34.289Z,45.13
2019-03-24T22:31:01.690Z,44.87
2019-03-24T22:33:29.096Z,49.43
2019-03-24T22:35:56.493Z,56.13
2019-03-24T22:38:23.910Z,52.10
2019-03-24T22:40:51.309Z,56.40
2019-03-24T22:43:18.814Z,47.77
2019-03-24T22:45:46.209Z,49.67
2019-03-24T22:48:13.626Z,47.33
2019-03-24T22:50:41.026Z,50.20
2019-03-24T22:53:08.447Z,43.27
2019-03-24T22:55:35.836Z,41.83
2019-03-24T22:58:03.254Z,41.67
2019-03-24T23:00:32.737Z,45.40
2019-03-24T23:03:00.324Z,38.70
2019-03-24T23:05:27.841Z,40.07
2019-03-24T23:07:55.234Z,38.20
2019-03-24T23:10:22.650Z,36.47
2019-03-24T23:12:50.038Z,36.70
2019-03-24T23:15:17.477Z,40.00
2019-03-24T23:17:44.873Z,34.77
2019-03-24T23:20:12.298Z,47.43
2019-03-24T23:22:39.685Z,46.13
2019-03-24T23:25:07.302Z,36.53
2019-03-24T23:27:34.656Z,41.73
2019-03-24T23:30:02.106Z,37.20
2019-03-24T23:32:29.475Z,31.93
2019-03-24T23:34:56.895Z,35.13
2019-03-24T23:37:24.281Z,37.90
2019-03-24T23:39:51.756Z,38.47
2019-03-24T23:42:19.141Z,34.43
2019-03-24T23:44:46.564Z,34.43
2019-03-24T23:47:13.943Z,37.50
2019-03-24T23:49:41.357Z,32.43
2019-03-24T23:52:08.766Z,29.00
2019-03-24T23:54:36.179Z,28.77
2019-03-24T23:57:03.568Z,22.20
2019-03-24T23:59:30.980Z,34.53
